Time;durP1;ratioP1;P1;durP2;ratioP2;P2;SDS_P1;SDS_P2;PMS_P1;PMS_P2;Temp;Humidity;BMP_temperature;BMP_pressure;BME280_temperature;BME280_humidity;BME280_pressure;Samples;Min_cycle;Max_cycle;Signal;HPM_P1;HPM_P2
2022/06/16 00:01:25;;;;;;;1.10;1.00;;;;;;;18.31;78.13;101217.19;5028322;28;20481;-58
2022/06/16 00:03:51;;;;;;;1.50;0.70;;;;;;;18.20;77.87;101217.19;5026217;28;20037;-60
2022/06/16 00:06:17;;;;;;;0.70;0.60;;;;;;;18.19;77.84;101214.88;5031809;28;20025;-62
2022/06/16 00:08:43;;;;;;;0.63;0.57;;;;;;;18.34;77.16;101219.13;5031649;28;20041;-61
2022/06/16 00:11:17;;;;;;;1.02;0.50;;;;;;;18.35;76.31;101209.78;5022641;28;20107;-61
2022/06/16 00:13:44;;;;;;;2.35;0.70;;;;;;;18.38;76.23;101214.44;5026881;28;20068;-59
2022/06/16 00:16:11;;;;;;;0.75;0.60;;;;;;;18.37;76.40;101216.38;5026287;28;20036;-61
2022/06/16 00:18:37;;;;;;;0.80;0.70;;;;;;;18.37;76.33;101207.44;5028711;28;20420;-61
2022/06/16 00:21:04;;;;;;;1.10;1.00;;;;;;;18.13;77.03;101198.13;5024561;28;20029;-59
2022/06/16 00:23:30;;;;;;;1.35;0.63;;;;;;;18.15;76.77;101198.53;5025294;28;20033;-61
2022/06/16 00:25:55;;;;;;;1.35;0.88;;;;;;;18.13;77.37;101202.81;5025732;28;20032;-57
2022/06/16 00:28:22;;;;;;;1.00;0.70;;;;;;;18.06;77.35;101191.91;5027403;28;20033;-61
2022/06/16 00:30:47;;;;;;;0.77;0.60;;;;;;;18.00;76.99;101195.03;5020654;28;20038;-61
2022/06/16 00:33:13;;;;;;;1.13;0.73;;;;;;;18.08;77.75;101205.94;5026537;28;20152;-61
2022/06/16 00:35:39;;;;;;;2.20;0.57;;;;;;;17.97;77.63;101204.00;5029619;28;20067;-61
2022/06/16 00:38:05;;;;;;;0.63;0.47;;;;;;;18.04;77.23;101197.75;5031825;28;20038;-61
2022/06/16 00:40:31;;;;;;;1.23;0.65;;;;;;;17.93;77.86;101200.50;5028187;28;20033;-61
2022/06/16 00:42:57;;;;;;;1.17;0.70;;;;;;;17.92;78.23;101192.72;5031133;28;20128;-61
2022/06/16 00:46:01;;;;;;;0.82;0.55;;;;;;;17.93;77.43;101192.31;5035136;28;20113;-60
2022/06/16 00:48:38;;;;;;;0.85;0.68;;;;;;;17.92;76.92;101190.75;5042975;28;20071;-60
2022/06/16 00:51:07;;;;;;;0.45;0.45;;;;;;;17.83;77.26;101184.91;5032131;28;20134;-59
2022/06/16 00:53:33;;;;;;;0.80;0.70;;;;;;;17.80;78.06;101183.00;5031570;28;20045;-61
2022/06/16 00:55:59;;;;;;;0.95;0.45;;;;;;;17.80;77.71;101193.09;5031738;28;20029;-61
2022/06/16 00:58:29;;;;;;;1.38;0.60;;;;;;;17.82;78.30;101188.03;5027071;28;20040;-61
2022/06/16 01:00:54;;;;;;;0.40;0.35;;;;;;;17.56;78.88;101183.75;5029829;28;20030;-57
2022/06/16 01:06:26;;;;;;;0.70;0.47;;;;;;;17.67;79.36;101181.81;5022362;28;20080;-61
2022/06/16 01:09:05;;;;;;;1.40;0.52;;;;;;;17.58;79.32;101178.69;5033163;22;20043;-66
2022/06/16 01:14:53;;;;;;;0.88;0.50;;;;;;;17.38;80.07;101188.38;5009083;28;20034;-63
2022/06/16 01:17:47;;;;;;;1.05;0.50;;;;;;;17.43;79.76;101185.28;5012967;28;20026;-63
2022/06/16 01:20:19;;;;;;;2.17;0.63;;;;;;;17.31;80.05;101184.88;5020957;28;20192;-62
2022/06/16 01:23:17;;;;;;;0.90;0.60;;;;;;;17.08;80.80;101182.50;5024954;28;20034;-61
2022/06/16 01:26:10;;;;;;;0.93;0.60;;;;;;;17.20;81.51;101184.06;5010190;28;20527;-62
2022/06/16 01:29:05;;;;;;;1.00;0.60;;;;;;;17.20;80.91;101182.13;5028107;28;20453;-62
2022/06/16 01:31:45;;;;;;;1.42;0.82;;;;;;;17.21;80.71;101178.25;5004449;28;20022;-62
2022/06/16 01:34:28;;;;;;;3.20;0.70;;;;;;;17.23;80.62;101184.06;5010045;28;20040;-60
2022/06/16 01:36:59;;;;;;;0.57;0.50;;;;;;;17.27;80.73;101184.06;5009001;28;20304;-62
2022/06/16 01:39:34;;;;;;;2.95;0.70;;;;;;;17.35;79.98;101186.44;5026766;28;20122;-64
2022/06/16 01:42:15;;;;;;;0.57;0.40;;;;;;;17.46;79.73;101187.22;5011398;28;20490;-62
2022/06/16 01:44:58;;;;;;;1.10;0.57;;;;;;;17.37;79.80;101192.28;5009827;28;20029;-62
2022/06/16 01:47:28;;;;;;;0.80;0.77;;;;;;;17.27;79.87;101186.81;5008042;28;20445;-59
2022/06/16 01:49:59;;;;;;;0.80;0.50;;;;;;;17.29;79.96;101179.03;5011604;28;20034;-62
2022/06/16 01:52:35;;;;;;;1.02;0.63;;;;;;;17.34;79.88;101175.94;5013637;28;20091;-62
2022/06/16 01:55:07;;;;;;;0.40;0.40;;;;;;;17.29;79.84;101177.09;5002818;28;20040;-62
2022/06/16 01:57:44;;;;;;;0.88;0.70;;;;;;;17.30;79.55;101161.53;5005992;28;20041;-62
2022/06/16 02:00:12;;;;;;;0.55;0.45;;;;;;;17.27;79.72;101159.56;5005392;28;20052;-61
2022/06/16 02:02:58;;;;;;;4.00;0.68;;;;;;;17.20;80.33;101152.19;5011359;28;20069;-60
2022/06/16 02:05:34;;;;;;;0.63;0.50;;;;;;;17.32;79.96;101149.09;5009798;28;20109;-62
2022/06/16 02:08:06;;;;;;;0.80;0.50;;;;;;;17.17;80.16;101147.50;5006759;28;20045;-61
2022/06/16 02:10:37;;;;;;;0.93;0.70;;;;;;;17.05;80.78;101147.91;5008365;28;20037;-61
2022/06/16 02:13:08;;;;;;;1.13;0.77;;;;;;;16.96;82.09;101148.25;5012255;28;20084;-62
2022/06/16 02:16:11;;;;;;;0.40;0.40;;;;;;;16.83;82.42;101154.44;5022809;28;20062;-63
2022/06/16 02:18:41;;;;;;;1.17;0.60;;;;;;;16.77;82.53;101150.53;5010526;28;20044;-63
2022/06/16 02:21:07;;;;;;;0.32;0.32;;;;;;;16.68;83.53;101147.41;5010533;28;20498;-62
2022/06/16 02:23:34;;;;;;;0.75;0.50;;;;;;;16.63;84.26;101150.47;5021392;28;20560;-63
2022/06/16 02:26:00;;;;;;;0.60;0.57;;;;;;;16.66;84.17;101147.78;5005950;28;20034;-60
2022/06/16 02:28:27;;;;;;;1.17;0.82;;;;;;;16.60;84.34;101149.31;5026505;28;20029;-62
2022/06/16 02:30:56;;;;;;;2.33;0.80;;;;;;;16.72;83.97;101154.41;5020889;28;20084;-64
2022/06/16 02:33:40;;;;;;;0.95;0.40;;;;;;;16.80;83.23;101157.94;5022582;28;20030;-61
2022/06/16 02:36:41;;;;;;;0.80;0.60;;;;;;;16.51;84.40;101142.69;5008751;28;20022;-60
2022/06/16 02:39:25;;;;;;;0.70;0.40;;;;;;;16.68;84.00;101153.63;5028561;28;20057;-62
2022/06/16 02:42:30;;;;;;;1.05;0.90;;;;;;;16.60;84.75;101151.25;5009483;28;20470;-62
2022/06/16 02:45:18;;;;;;;1.63;1.35;;;;;;;16.68;84.32;101150.13;4999582;28;20438;-61
2022/06/16 02:48:07;;;;;;;0.50;0.47;;;;;;;16.72;84.39;101154.41;5019252;28;20037;-63
2022/06/16 02:50:58;;;;;;;1.70;1.00;;;;;;;16.77;84.35;101156.75;5008009;28;20036;-60
2022/06/16 02:53:52;;;;;;;1.43;0.70;;;;;;;16.76;84.10;101157.91;5010255;28;20493;-63
2022/06/16 02:56:46;;;;;;;1.52;0.65;;;;;;;16.84;83.49;101158.72;5023234;28;20038;-60
2022/06/16 02:59:22;;;;;;;0.63;0.60;;;;;;;16.65;84.27;101148.16;5008924;28;20034;-62
2022/06/16 03:01:50;;;;;;;1.38;0.73;;;;;;;16.76;83.70;101155.19;5005919;28;20565;-62
2022/06/16 03:04:18;;;;;;;0.60;0.60;;;;;;;16.73;83.84;101160.63;5008636;28;20033;-62
2022/06/16 03:06:46;;;;;;;1.35;0.63;;;;;;;16.72;83.54;101170.75;5008786;28;20084;-60
2022/06/16 03:09:13;;;;;;;0.95;0.68;;;;;;;16.54;84.41;101167.16;5005782;28;20029;-62
2022/06/16 03:11:40;;;;;;;0.93;0.70;;;;;;;16.65;84.82;101178.06;5025451;28;20041;-63
2022/06/16 03:14:10;;;;;;;0.93;0.70;;;;;;;16.62;84.25;101173.41;5009347;28;20037;-61
2022/06/16 03:16:40;;;;;;;0.90;0.68;;;;;;;16.65;84.47;101172.63;5021859;28;20548;-61
2022/06/16 03:19:06;;;;;;;0.80;0.80;;;;;;;16.47;84.94;101191.59;5022924;28;20041;-61
2022/06/16 03:21:32;;;;;;;1.55;0.50;;;;;;;16.35;86.02;101181.03;5025703;28;20524;-63
2022/06/16 03:23:58;;;;;;;1.45;0.80;;;;;;;16.31;86.78;101182.16;5022739;28;20038;-62
2022/06/16 03:26:25;;;;;;;0.63;0.50;;;;;;;16.31;86.76;101182.16;4993280;28;20026;-62
2022/06/16 03:28:54;;;;;;;0.50;0.50;;;;;;;16.47;86.01;101188.88;5025161;28;20144;-63
2022/06/16 03:31:20;;;;;;;1.83;0.77;;;;;;;16.35;86.73;101183.75;5005561;28;20577;-62
2022/06/16 03:33:48;;;;;;;0.75;0.60;;;;;;;16.40;86.81;101186.09;5024196;28;20056;-63
2022/06/16 03:36:14;;;;;;;0.57;0.50;;;;;;;16.49;86.77;101197.44;5008767;28;20038;-62
2022/06/16 03:38:43;;;;;;;1.23;1.02;;;;;;;16.42;86.61;101193.88;5015945;28;20320;-63
2022/06/16 03:41:12;;;;;;;0.77;0.50;;;;;;;16.53;86.31;101192.03;5022143;28;20037;-59
2022/06/16 03:43:39;;;;;;;0.90;0.55;;;;;;;16.47;87.14;101197.03;5021155;28;20133;-60
2022/06/16 03:46:14;;;;;;;0.80;0.60;;;;;;;16.51;86.75;101195.09;5013307;28;20018;-60
2022/06/16 03:48:43;;;;;;;0.80;0.80;;;;;;;16.55;86.92;101198.63;5021313;28;20080;-61
2022/06/16 03:51:12;;;;;;;1.27;0.90;;;;;;;16.75;86.47;101199.09;5006801;28;20034;-62
2022/06/16 03:53:41;;;;;;;0.60;0.60;;;;;;;16.78;85.76;101201.06;5025306;28;20060;-60
2022/06/16 03:56:07;;;;;;;1.27;0.88;;;;;;;16.76;85.79;101203.41;5020342;28;20112;-58
2022/06/16 03:58:34;;;;;;;4.35;0.55;;;;;;;16.88;85.81;101211.19;5019838;28;20033;-61
2022/06/16 04:01:00;;;;;;;3.17;0.80;;;;;;;16.88;85.14;101208.47;5009210;28;20398;-58
2022/06/16 04:06:13;;;;;;;1.63;0.70;;;;;;;16.83;85.58;101208.84;5016263;28;20120;-66
2022/06/16 04:08:41;;;;;;;0.88;0.77;;;;;;;16.95;85.34;101212.03;5007406;28;20121;-63
2022/06/16 04:14:16;;;;;;;1.60;0.70;;;;;;;17.10;84.93;101218.28;6235624;22;20067;-64
2022/06/16 04:16:53;;;;;;;1.48;0.82;;;;;;;17.23;84.51;101221.44;5012287;28;20042;-61
2022/06/16 04:19:29;;;;;;;1.20;0.82;;;;;;;17.26;84.60;101226.88;5020252;28;20056;-64
2022/06/16 04:21:55;;;;;;;0.98;0.90;;;;;;;17.14;85.35;101228.03;5019134;28;20026;-63
2022/06/16 04:24:33;;;;;;;0.77;0.77;;;;;;;17.19;84.74;101235.00;5023374;28;20083;-63
2022/06/16 04:26:59;;;;;;;1.10;0.80;;;;;;;17.25;84.73;101232.72;5016018;28;20397;-63
2022/06/16 04:29:25;;;;;;;1.00;0.60;;;;;;;17.25;84.73;101240.88;5021458;28;20022;-62
2022/06/16 04:31:53;;;;;;;1.10;0.75;;;;;;;17.21;84.69;101232.69;5017279;28;20032;-63
2022/06/16 04:34:18;;;;;;;2.08;0.80;;;;;;;17.11;85.18;101242.38;5037971;28;20025;-62
2022/06/16 04:36:45;;;;;;;0.60;0.60;;;;;;;17.19;85.11;101239.69;5027836;28;20041;-65
2022/06/16 04:39:14;;;;;;;0.75;0.55;;;;;;;17.21;85.09;101245.53;5014119;28;20079;-65
2022/06/16 04:41:44;;;;;;;1.77;0.90;;;;;;;17.19;85.64;101248.63;5039062;28;20045;-64
2022/06/16 04:44:13;;;;;;;1.17;0.77;;;;;;;17.13;85.71;101252.88;5022144;28;20054;-65
2022/06/16 04:46:39;;;;;;;0.70;0.70;;;;;;;17.06;86.51;101250.16;5031592;28;20082;-64
2022/06/16 04:49:05;;;;;;;1.13;0.57;;;;;;;17.20;86.17;101250.19;5021206;28;20033;-63
2022/06/16 04:51:39;;;;;;;1.05;0.95;;;;;;;17.20;86.37;101252.13;5027357;28;20037;-63
2022/06/16 04:54:08;;;;;;;1.08;0.70;;;;;;;17.23;86.15;101254.88;5037890;28;20620;-64
2022/06/16 04:57:05;;;;;;;0.65;0.52;;;;;;;17.26;86.91;101254.09;5016228;28;20047;-64
2022/06/16 04:59:48;;;;;;;0.75;0.60;;;;;;;17.23;87.31;101256.81;5031822;28;20095;-65
2022/06/16 05:02:43;;;;;;;0.80;0.70;;;;;;;17.23;86.69;101257.59;5021399;28;20032;-64
2022/06/16 05:05:34;;;;;;;0.95;0.60;;;;;;;17.26;86.67;101256.84;5013283;28;20029;-64
2022/06/16 05:08:31;;;;;;;2.65;0.70;;;;;;;17.32;86.62;101252.56;5016155;28;20102;-63
2022/06/16 05:11:20;;;;;;;0.77;0.70;;;;;;;17.41;87.15;101261.16;5013463;28;20052;-62
2022/06/16 05:14:00;;;;;;;1.33;0.63;;;;;;;17.40;86.86;101256.84;5027888;28;20034;-62
2022/06/16 05:16:44;;;;;;;0.82;0.70;;;;;;;17.43;87.10;101266.97;5012443;28;20548;-64
2022/06/16 05:19:32;;;;;;;0.82;0.68;;;;;;;17.48;87.29;101266.63;5018932;28;20124;-64
2022/06/16 05:22:21;;;;;;;1.27;1.00;;;;;;;17.48;87.11;101272.06;4974744;28;20133;-63
2022/06/16 05:25:04;;;;;;;0.82;0.38;;;;;;;17.56;87.86;101278.31;5020401;28;20763;-64
2022/06/16 05:27:53;;;;;;;2.13;0.60;;;;;;;17.61;87.46;101281.47;5009509;28;20433;-64
2022/06/16 05:30:41;;;;;;;3.20;0.77;;;;;;;17.72;87.82;101295.09;5021750;28;20084;-65
2022/06/16 05:33:26;;;;;;;0.90;0.75;;;;;;;17.60;87.52;101300.91;5015600;28;20045;-64
2022/06/16 05:36:02;;;;;;;2.00;0.90;;;;;;;17.69;87.26;101293.91;5023249;28;20037;-63
2022/06/16 05:38:46;;;;;;;;;;;;;;;17.71;87.69;101296.25;5013949;28;20048;-65
2022/06/16 05:41:33;;;;;;;0.63;0.60;;;;;;;17.82;87.29;101297.06;5023328;28;20408;-64
2022/06/16 05:44:14;;;;;;;1.23;0.60;;;;;;;17.84;87.20;101306.41;5026985;28;20083;-64
2022/06/16 05:46:42;;;;;;;1.40;0.68;;;;;;;17.88;87.13;101307.19;5023849;28;20041;-65
2022/06/16 05:49:12;;;;;;;0.82;0.65;;;;;;;17.87;86.92;101316.53;5039056;28;20033;-63
2022/06/16 05:51:42;;;;;;;1.45;0.52;;;;;;;17.98;86.28;101306.41;5026360;28;20069;-64
2022/06/16 05:54:11;;;;;;;0.60;0.50;;;;;;;17.97;87.12;101304.06;5039652;28;20037;-64
2022/06/16 05:56:38;;;;;;;1.15;0.60;;;;;;;18.06;87.01;101306.41;5033050;28;20037;-64
2022/06/16 05:59:05;;;;;;;2.22;0.80;;;;;;;18.10;87.04;101307.19;5030298;28;20045;-63
2022/06/16 06:01:33;;;;;;;0.95;0.50;;;;;;;18.15;86.42;101306.81;5025898;28;20052;-63
2022/06/16 06:04:07;;;;;;;2.65;0.70;;;;;;;18.17;86.51;101307.97;5038217;28;20033;-63
2022/06/16 06:06:34;;;;;;;0.90;0.60;;;;;;;18.23;86.21;101308.38;5031284;28;20088;-63
2022/06/16 06:17:20;;;;;;;0.63;0.40;;;;;;;18.55;85.16;101320.03;5030743;28;20044;-65
2022/06/16 06:19:48;;;;;;;2.60;0.60;;;;;;;18.71;84.35;101317.69;5034082;28;20030;-63
2022/06/16 06:22:19;;;;;;;1.50;0.75;;;;;;;18.82;84.03;101312.97;5042623;28;20018;-64
2022/06/16 06:24:49;;;;;;;1.25;0.70;;;;;;;18.89;83.49;101318.44;5036922;28;20079;-63
2022/06/16 06:27:35;;;;;;;0.50;0.50;;;;;;;18.93;82.57;101319.97;5033677;28;20057;-64
2022/06/16 06:30:10;;;;;;;0.65;0.55;;;;;;;19.12;82.51;101324.19;5024428;28;20077;-64
2022/06/16 06:32:35;;;;;;;1.00;0.57;;;;;;;19.21;82.77;101321.81;5015629;28;20030;-65
2022/06/16 06:35:02;;;;;;;0.80;0.50;;;;;;;19.43;82.48;101336.97;5026831;28;20036;-63
2022/06/16 06:37:28;;;;;;;0.40;0.40;;;;;;;19.61;81.40;101340.38;5023481;28;20046;-64
2022/06/16 06:39:54;;;;;;;1.17;0.47;;;;;;;19.92;81.29;101335.13;5037528;28;20635;-63
2022/06/16 06:42:20;;;;;;;0.60;0.50;;;;;;;20.15;79.73;101338.09;5020832;28;20116;-64
2022/06/16 06:44:47;;;;;;;0.90;0.60;;;;;;;20.29;79.24;101340.72;5022201;28;20033;-63
2022/06/16 06:47:32;;;;;;;0.38;0.38;;;;;;;20.42;77.19;101336.31;5016918;28;20104;-64
2022/06/16 06:49:57;;;;;;;0.30;0.30;;;;;;;20.60;76.33;101340.44;5017325;28;20501;-63
2022/06/16 06:52:23;;;;;;;0.40;0.30;;;;;;;20.75;75.26;101343.78;5009205;28;20117;-63
2022/06/16 06:54:49;;;;;;;1.00;0.40;;;;;;;20.95;75.30;101347.50;5012019;28;20068;-63
2022/06/16 06:57:26;;;;;;;0.68;0.45;;;;;;;21.21;74.74;101352.34;5015566;28;20109;-64
2022/06/16 06:59:52;;;;;;;0.40;0.28;;;;;;;21.38;73.59;101350.56;5016566;28;20034;-64
2022/06/16 07:02:19;;;;;;;0.43;0.40;;;;;;;21.56;73.93;101349.13;5020880;28;20504;-64
2022/06/16 07:04:45;;;;;;;0.93;0.40;;;;;;;21.70;72.38;101355.63;5018925;28;20088;-65
2022/06/16 07:07:17;;;;;;;0.60;0.45;;;;;;;21.82;71.71;101352.31;5029376;28;20029;-64
2022/06/16 07:09:45;;;;;;;0.68;0.30;;;;;;;21.90;71.31;101360.03;5025572;28;20048;-65
2022/06/16 07:12:15;;;;;;;0.32;0.28;;;;;;;22.04;71.39;101359.06;5022529;28;20021;-63
2022/06/16 07:14:42;;;;;;;0.75;0.40;;;;;;;22.11;69.67;101365.22;5023329;28;20060;-64
2022/06/16 07:17:07;;;;;;;0.52;0.30;;;;;;;22.28;70.54;101361.41;5023692;28;20515;-63
2022/06/16 07:19:34;;;;;;;0.55;0.20;;;;;;;22.52;69.98;101367.69;5022375;28;20026;-64
2022/06/16 07:22:00;;;;;;;1.80;0.47;;;;;;;22.71;70.37;101368.94;5016731;28;20107;-64
2022/06/16 07:24:26;;;;;;;0.25;0.25;;;;;;;22.81;66.83;101366.00;5019080;28;20037;-64
2022/06/16 07:26:51;;;;;;;1.27;0.50;;;;;;;22.92;67.70;101382.28;5019062;28;20032;-64
2022/06/16 07:29:17;;;;;;;0.40;0.35;;;;;;;23.12;67.11;101383.88;5017600;28;20042;-64
2022/06/16 07:31:43;;;;;;;0.47;0.40;;;;;;;23.20;65.62;101382.53;5022388;28;20117;-64
2022/06/16 07:34:09;;;;;;;0.30;0.20;;;;;;;23.15;65.47;101379.50;5017485;28;20596;-65
2022/06/16 07:36:35;;;;;;;1.38;0.40;;;;;;;23.20;64.59;101381.75;5022840;28;20116;-64
2022/06/16 07:39:01;;;;;;;0.98;0.30;;;;;;;23.13;63.61;101384.66;5021714;28;20105;-64
2022/06/16 07:41:34;;;;;;;0.47;0.43;;;;;;;23.05;62.12;101383.25;5024322;28;20478;-64
2022/06/16 07:44:26;;;;;;;0.60;0.22;;;;;;;23.06;62.51;101379.28;5015330;28;20610;-63
2022/06/16 07:46:52;;;;;;;0.45;0.30;;;;;;;23.06;61.39;101379.28;5017733;28;20125;-65
2022/06/16 07:49:22;;;;;;;1.38;0.25;;;;;;;23.05;62.52;101381.25;5020489;28;20030;-65
2022/06/16 07:51:51;;;;;;;1.20;0.30;;;;;;;23.26;60.44;101393.81;5019738;28;20410;-64
2022/06/16 07:54:17;;;;;;;0.70;0.40;;;;;;;23.28;58.93;101396.91;5024160;28;20032;-64
2022/06/16 07:56:45;;;;;;;1.08;0.38;;;;;;;23.33;59.16;101390.94;5024994;28;20124;-64
2022/06/16 07:59:12;;;;;;;0.95;0.75;;;;;;;23.16;57.71;101394.78;5023626;28;20068;-65
2022/06/16 08:01:37;;;;;;;0.15;0.15;;;;;;;23.17;57.42;101391.63;5023824;28;20036;-65
2022/06/16 08:04:05;;;;;;;0.28;0.20;;;;;;;22.95;55.31;101395.97;5023227;28;20112;-65
2022/06/16 08:06:33;;;;;;;0.17;0.10;;;;;;;22.89;56.86;101396.88;5021826;28;20029;-64
2022/06/16 08:08:59;;;;;;;0.73;0.20;;;;;;;22.86;56.31;101395.72;5031203;28;20055;-65
2022/06/16 08:14:09;;;;;;;0.95;0.50;;;;;;;22.94;57.71;101399.13;5022823;28;20047;-64
2022/06/16 08:16:35;;;;;;;0.30;0.20;;;;;;;22.99;57.78;101412.41;5028213;28;20029;-65
2022/06/16 08:19:01;;;;;;;0.40;0.30;;;;;;;23.01;57.12;101408.03;5022742;28;20028;-63
2022/06/16 08:21:27;;;;;;;0.43;0.20;;;;;;;22.95;57.65;101406.97;5022364;28;20033;-63
2022/06/16 08:23:53;;;;;;;0.30;0.30;;;;;;;23.11;57.42;101414.53;5022171;28;20033;-64
2022/06/16 08:26:19;;;;;;;0.57;0.38;;;;;;;23.38;58.25;101412.47;5018621;28;20030;-65
2022/06/16 08:28:45;;;;;;;0.65;0.20;;;;;;;23.74;57.63;101416.03;5021151;28;20030;-64
2022/06/16 08:31:12;;;;;;;1.98;0.20;;;;;;;23.97;55.95;101415.13;5023684;28;20057;-65
2022/06/16 08:33:39;;;;;;;0.65;0.30;;;;;;;24.11;54.36;101409.31;5016042;28;20045;-65
2022/06/16 08:36:05;;;;;;;0.55;0.22;;;;;;;24.27;54.14;101417.59;5014930;28;20143;-64
2022/06/16 08:38:30;;;;;;;0.28;0.28;;;;;;;24.20;52.86;101403.25;5019396;28;20089;-65
2022/06/16 08:41:13;;;;;;;0.30;0.10;;;;;;;24.31;53.37;101407.28;5013933;28;20040;-65
2022/06/16 08:44:30;;;;;;;0.50;0.20;;;;;;;24.35;52.69;101396.94;5030102;28;20164;-64
2022/06/16 08:47:09;;;;;;;0.20;0.17;;;;;;;24.42;52.62;101394.03;4984562;28;20446;-65
2022/06/16 08:49:46;;;;;;;0.20;0.20;;;;;;;24.60;52.06;101394.34;5012814;28;20061;-64
2022/06/16 08:52:32;;;;;;;0.30;0.20;;;;;;;24.57;52.01;101402.69;5008690;28;20044;-64
2022/06/16 08:55:12;;;;;;;0.10;0.10;;;;;;;24.61;50.98;101389.59;4988185;28;20054;-64
2022/06/16 08:58:23;;;;;;;0.20;0.20;;;;;;;24.47;50.48;101398.22;5015089;28;20033;-63
2022/06/16 09:00:54;;;;;;;0.20;0.20;;;;;;;24.42;51.06;101388.50;5011206;28;20049;-64
2022/06/16 09:03:33;;;;;;;0.30;0.30;;;;;;;24.66;50.75;101400.13;5024493;28;20037;-64
2022/06/16 09:06:17;;;;;;;0.90;0.20;;;;;;;24.97;48.64;101401.28;5022619;28;20034;-64
2022/06/16 09:09:12;;;;;;;0.10;0.10;;;;;;;25.18;48.39;101397.94;5023181;28;20052;-65
2022/06/16 09:11:58;;;;;;;0.85;0.30;;;;;;;25.31;48.40;101401.50;5009511;28;20049;-65
2022/06/16 09:15:10;;;;;;;0.30;0.28;;;;;;;25.42;47.90;101402.00;5021565;28;20045;-65
2022/06/16 09:17:27;;;;;;;0.47;0.20;;;;;;;25.73;47.31;101405.03;5021934;28;20037;-64
2022/06/16 09:20:15;;;;;;;0.15;0.03;;;;;;;25.91;45.73;101411.59;5024494;28;20033;-64
2022/06/16 09:23:10;;;;;;;0.30;0.20;;;;;;;25.96;45.96;101404.72;5019658;28;20386;-65
2022/06/16 09:25:51;;;;;;;0.30;0.17;;;;;;;26.11;46.32;101405.88;5019370;28;20555;-65
2022/06/16 09:28:28;;;;;;;0.10;0.10;;;;;;;26.21;43.51;101401.97;5019648;28;20084;-65
2022/06/16 09:30:58;;;;;;;0.60;0.10;;;;;;;26.24;43.04;101412.16;5027161;28;20025;-64
2022/06/16 09:33:29;;;;;;;0.25;0.08;;;;;;;26.44;43.49;101417.44;5020568;28;20033;-65
2022/06/16 09:36:03;;;;;;;0.00;0.00;;;;;;;26.52;42.50;101416.75;5022741;28;20041;-64
2022/06/16 09:38:50;;;;;;;0.17;0.10;;;;;;;26.53;41.92;101418.31;5013631;28;20029;-65
2022/06/16 09:44:51;;;;;;;0.00;0.00;;;;;;;26.73;41.77;101426.38;5020257;28;20486;-65
2022/06/16 09:47:24;;;;;;;2.60;0.43;;;;;;;26.92;41.56;101428.06;5017183;28;20057;-63
2022/06/16 09:49:59;;;;;;;0.00;0.00;;;;;;;27.08;42.24;101421.59;5025476;28;20037;-63
2022/06/16 09:52:36;;;;;;;0.10;0.10;;;;;;;27.02;41.69;101418.63;5024120;28;20087;-63
2022/06/16 09:55:10;;;;;;;0.08;0.08;;;;;;;27.11;42.02;101420.69;5024660;28;20108;-61
2022/06/16 09:57:42;;;;;;;0.00;0.00;;;;;;;27.22;42.25;101421.06;5023165;28;20464;-63
2022/06/16 10:00:10;;;;;;;0.10;0.10;;;;;;;27.17;41.17;101416.13;5024483;28;20061;-63
2022/06/16 10:02:50;;;;;;;0.80;0.20;;;;;;;27.27;41.84;101409.44;5024967;28;20049;-61
2022/06/16 10:05:34;;;;;;;0.10;0.10;;;;;;;27.38;41.04;101407.06;5013914;28;20116;-62
2022/06/16 10:08:06;;;;;;;0.10;0.10;;;;;;;27.34;41.12;101411.97;5016138;28;20817;-62
2022/06/16 10:10:44;;;;;;;0.08;0.08;;;;;;;27.61;40.43;101406.59;5018689;28;20037;-62
2022/06/16 10:13:31;;;;;;;0.38;0.20;;;;;;;27.67;40.31;101410.31;5020437;28;20041;-62
2022/06/16 10:16:12;;;;;;;0.15;0.10;;;;;;;27.73;40.11;101408.50;5025845;28;20482;-62
2022/06/16 10:18:40;;;;;;;0.13;0.10;;;;;;;27.79;39.59;101426.09;5022653;28;20489;-63
2022/06/16 10:21:07;;;;;;;0.10;0.10;;;;;;;27.86;39.32;101436.88;5014293;28;20048;-62
2022/06/16 10:23:55;;;;;;;0.30;0.20;;;;;;;27.96;39.66;101432.97;5023158;28;20404;-63
2022/06/16 10:26:21;;;;;;;0.10;0.10;;;;;;;28.05;40.54;101430.22;5019032;28;20421;-64
2022/06/16 10:29:18;;;;;;;0.03;0.03;;;;;;;28.11;39.10;101435.94;5022622;28;20033;-62
2022/06/16 10:31:46;;;;;;;0.20;0.00;;;;;;;28.14;38.97;101438.59;5023163;28;20040;-63
2022/06/16 10:34:37;;;;;;;0.45;0.13;;;;;;;28.36;40.06;101444.78;5024600;28;20033;-62
2022/06/16 10:37:18;;;;;;;0.10;0.10;;;;;;;28.62;38.45;101444.56;5010516;28;20050;-63
2022/06/16 10:39:48;;;;;;;0.10;0.10;;;;;;;28.18;38.10;101436.44;5014134;28;20084;-64
2022/06/16 10:42:17;;;;;;;0.10;0.10;;;;;;;28.11;38.75;101441.47;5021851;28;20371;-64
2022/06/16 10:44:52;;;;;;;2.25;0.10;;;;;;;28.38;39.51;101453.44;5022788;28;20493;-62
2022/06/16 10:47:30;;;;;;;0.05;0.05;;;;;;;28.39;40.44;101448.66;5019496;28;20130;-63
2022/06/16 10:49:56;;;;;;;0.10;0.10;;;;;;;28.45;39.83;101464.22;5022062;28;20037;-65
2022/06/16 10:52:34;;;;;;;0.40;0.20;;;;;;;28.65;38.21;101466.63;5017739;28;20030;-63
2022/06/16 10:55:09;;;;;;;0.45;0.10;;;;;;;28.72;39.76;101471.09;5019177;28;20045;-64
2022/06/16 10:57:43;;;;;;;1.95;0.82;;;;;;;28.93;39.71;101470.22;5017222;28;20125;-64
2022/06/16 11:00:21;;;;;;;0.30;0.20;;;;;;;28.99;38.13;101471.13;5015581;28;20124;-64
2022/06/16 11:03:13;;;;;;;0.10;0.10;;;;;;;28.53;40.44;101473.78;5020530;28;20091;-64
2022/06/16 11:05:51;;;;;;;0.22;0.10;;;;;;;27.94;39.54;101460.34;5017416;28;20033;-64
2022/06/16 11:08:18;;;;;;;0.50;0.20;;;;;;;27.39;41.59;101466.75;5019997;28;20065;-63
2022/06/16 11:10:55;;;;;;;0.30;0.13;;;;;;;27.38;41.16;101465.19;5018948;28;20069;-63
2022/06/16 11:13:31;;;;;;;2.30;0.15;;;;;;;27.49;40.53;101460.03;5015079;28;20076;-63
2022/06/16 11:15:58;;;;;;;0.22;0.22;;;;;;;27.77;39.49;101453.47;5012433;28;20034;-63
2022/06/16 11:18:28;;;;;;;1.42;0.20;;;;;;;27.54;39.79;101457.47;5017261;28;20328;-63
2022/06/16 11:20:58;;;;;;;0.20;0.10;;;;;;;27.69;41.18;101463.25;5009084;28;20450;-64
2022/06/16 11:23:33;;;;;;;0.17;0.08;;;;;;;27.84;40.53;101458.72;5014546;28;20025;-62
2022/06/16 11:26:04;;;;;;;0.10;0.10;;;;;;;27.93;39.92;101456.00;5007905;28;20034;-63
2022/06/16 11:28:30;;;;;;;1.02;0.40;;;;;;;28.00;39.83;101455.75;5014267;28;20553;-64
2022/06/16 11:31:00;;;;;;;0.05;0.05;;;;;;;28.09;39.40;101453.00;5013492;28;20115;-62
2022/06/16 11:36:29;;;;;;;0.80;0.30;;;;;;;28.90;39.25;101460.03;5017956;28;20049;-63
2022/06/16 11:39:25;;;;;;;0.22;0.22;;;;;;;29.15;40.12;101465.31;5011203;28;20063;-62
2022/06/16 11:41:53;;;;;;;0.25;0.20;;;;;;;29.07;39.43;101459.28;5017453;28;20040;-63
2022/06/16 11:44:22;;;;;;;0.70;0.20;;;;;;;28.76;38.92;101461.41;5019397;28;20038;-64
2022/06/16 11:47:06;;;;;;;0.30;0.22;;;;;;;28.66;39.14;101467.38;5020472;28;20091;-63
2022/06/16 11:49:49;;;;;;;2.10;0.88;;;;;;;28.24;38.28;101465.06;5007939;28;20029;-63
2022/06/16 11:52:49;;;;;;;0.25;0.25;;;;;;;27.87;40.74;101452.28;5027045;28;20543;-64
2022/06/16 11:55:39;;;;;;;0.10;0.10;;;;;;;27.38;39.82;101457.66;5022287;28;20026;-64
2022/06/16 11:58:40;;;;;;;1.05;0.22;;;;;;;27.42;40.03;101463.06;5017708;28;20046;-64
2022/06/16 12:01:05;;;;;;;1.20;0.20;;;;;;;27.48;39.79;101462.06;5019043;28;20030;-64
2022/06/16 12:03:30;;;;;;;0.52;0.10;;;;;;;27.38;40.35;101460.44;5024945;28;20409;-64
2022/06/16 12:06:23;;;;;;;0.25;0.20;;;;;;;27.18;41.51;101456.38;5025324;28;20029;-64
2022/06/16 12:09:12;;;;;;;0.20;0.20;;;;;;;27.17;42.12;101457.63;5011619;28;20038;-63
2022/06/16 12:12:05;;;;;;;0.20;0.13;;;;;;;27.07;40.54;101456.00;5016196;28;20045;-63
2022/06/16 12:14:35;;;;;;;0.40;0.20;;;;;;;27.14;42.17;101461.31;5015782;28;20402;-63
2022/06/16 12:17:13;;;;;;;0.20;0.20;;;;;;;27.20;42.33;101459.47;5006362;28;20505;-63
2022/06/16 12:20:14;;;;;;;1.00;0.20;;;;;;;27.29;40.81;101457.56;5016636;28;20180;-63
2022/06/16 12:22:40;;;;;;;0.43;0.05;;;;;;;27.56;40.60;101462.56;5017167;28;20462;-63
2022/06/16 12:25:09;;;;;;;0.20;0.20;;;;;;;27.54;39.23;101456.69;5016677;28;20084;-64
2022/06/16 12:27:45;;;;;;;0.08;0.08;;;;;;;27.67;41.09;101465.69;5013478;28;20403;-64